createdAt,value
2022-10-17T00:03:43.932Z,101390.88
2022-10-17T00:08:46.281Z,101380.69
2022-10-17T00:13:50.163Z,101397.50
2022-10-17T00:18:52.574Z,101389.25
2022-10-17T00:23:55.205Z,101384.03
2022-10-17T00:28:57.665Z,101387.34
2022-10-17T00:34:00.007Z,101401.34
2022-10-17T00:39:04.464Z,101418.16
2022-10-17T00:44:28.491Z,101411.72
2022-10-17T00:49:34.342Z,101412.03
2022-10-17T00:54:40.566Z,101431.78
2022-10-17T00:59:43.621Z,101418.97
2022-10-17T01:04:48.429Z,101408.50
2022-10-17T01:09:50.832Z,101411.41
2022-10-17T01:14:58.982Z,101426.66
2022-10-17T01:20:22.976Z,101421.94
2022-10-17T01:25:29.761Z,101428.16
2022-10-17T01:30:50.798Z,101443.44
2022-10-17T01:36:06.694Z,101457.44
2022-10-17T01:41:18.095Z,101465.31
2022-10-17T01:46:28.252Z,101476.22
2022-10-17T01:51:38.847Z,101469.44
2022-10-17T01:56:42.167Z,101448.22
2022-10-17T02:01:47.228Z,101458.25
2022-10-17T02:06:49.587Z,101457.06
2022-10-17T02:12:22.955Z,101476.31
2022-10-17T02:17:47.498Z,101484.81
2022-10-17T02:22:52.166Z,101494.00
2022-10-17T02:28:03.685Z,101481.19
2022-10-17T02:33:10.618Z,101479.66
2022-10-17T02:38:13.727Z,101499.53
2022-10-17T02:43:18.284Z,101509.53
2022-10-17T02:48:42.536Z,101495.66
2022-10-17T02:54:03.150Z,101513.56
2022-10-17T02:59:08.010Z,101501.50
2022-10-17T03:04:13.867Z,101500.88
2022-10-17T03:09:17.885Z,101509.69
2022-10-17T03:14:20.397Z,101513.47
2022-10-17T03:19:22.892Z,101519.50
2022-10-17T03:24:26.884Z,101516.06
2022-10-17T03:29:29.576Z,101529.44
2022-10-17T03:34:32.239Z,101537.03
2022-10-17T03:39:34.618Z,101542.72
2022-10-17T03:44:36.987Z,101545.81
2022-10-17T03:49:40.193Z,101548.97
2022-10-17T03:54:42.556Z,101556.88
2022-10-17T03:59:44.971Z,101559.19
2022-10-17T04:04:51.927Z,101552.09
2022-10-17T04:09:54.441Z,101517.41
2022-10-17T04:14:57.910Z,101547.56
2022-10-17T04:20:01.275Z,101540.69
2022-10-17T04:25:04.521Z,101546.69
2022-10-17T04:30:13.412Z,101539.84
2022-10-17T04:35:16.626Z,101531.25
2022-10-17T04:40:23.559Z,101516.94
2022-10-17T04:45:27.954Z,101547.56
2022-10-17T04:50:34.059Z,101547.03
2022-10-17T04:56:01.659Z,101559.31
2022-10-17T05:01:13.479Z,101562.41
2022-10-17T05:06:20.576Z,101572.09
2022-10-17T05:11:38.099Z,101573.97
2022-10-17T05:16:40.806Z,101577.25
2022-10-17T05:21:43.673Z,101559.97
2022-10-17T05:26:45.986Z,101582.94
2022-10-17T05:31:48.405Z,101583.94
2022-10-17T05:36:50.681Z,101572.28
2022-10-17T05:41:56.412Z,101592.72
2022-10-17T05:46:59.273Z,101598.66
2022-10-17T05:52:02.911Z,101606.16
2022-10-17T05:57:10.895Z,101589.81
2022-10-17T06:02:15.389Z,101593.41
2022-10-17T06:07:18.051Z,101592.41
2022-10-17T06:12:20.956Z,101592.28
2022-10-17T06:17:24.045Z,101582.31
2022-10-17T06:22:26.609Z,101591.22
2022-10-17T06:27:29.176Z,101599.34
2022-10-17T06:32:32.468Z,101609.13
2022-10-17T06:37:37.122Z,101619.97
2022-10-17T06:42:44.302Z,101637.50
2022-10-17T06:48:00.567Z,101637.44
2022-10-17T06:53:16.719Z,101644.53
2022-10-17T06:58:43.366Z,101638.41
2022-10-17T07:04:21.015Z,101649.28
2022-10-17T07:09:25.139Z,101656.13
2022-10-17T07:14:32.163Z,101658.69
2022-10-17T07:19:35.282Z,101658.03
2022-10-17T07:24:38.309Z,101667.41
2022-10-17T07:30:02.752Z,101654.69
2022-10-17T07:35:12.151Z,101653.88
2022-10-17T07:40:15.858Z,101666.00
2022-10-17T07:45:19.226Z,101664.09
2022-10-17T07:50:22.624Z,101666.81
2022-10-17T07:55:24.927Z,101660.75
2022-10-17T08:00:27.988Z,101659.38
2022-10-17T08:05:31.246Z,101665.13
2022-10-17T08:10:33.614Z,101668.03
2022-10-17T08:15:39.004Z,101665.50
2022-10-17T08:20:42.397Z,101651.44
2022-10-17T08:25:44.686Z,101650.34
2022-10-17T08:30:46.997Z,101656.03
2022-10-17T08:35:49.304Z,101657.25
2022-10-17T08:40:51.627Z,101655.06
2022-10-17T08:46:03.276Z,101647.03
2022-10-17T08:51:34.874Z,101640.66
2022-10-17T08:56:49.180Z,101631.31
2022-10-17T09:02:20.133Z,101627.88
2022-10-17T09:07:32.579Z,101629.06
2022-10-17T09:12:44.737Z,101625.25
2022-10-17T09:17:56.917Z,101620.53
2022-10-17T09:23:05.938Z,101623.16
2022-10-17T09:28:28.808Z,101617.94
2022-10-17T09:33:53.264Z,101619.19
2022-10-17T09:38:58.319Z,101600.06
2022-10-17T09:44:14.654Z,101590.47
2022-10-17T09:49:20.391Z,101582.97
2022-10-17T09:54:27.442Z,101589.47
2022-10-17T09:59:40.677Z,101593.44
2022-10-17T10:05:06.414Z,101595.91
2022-10-17T10:10:27.614Z,101593.31
2022-10-17T10:15:34.124Z,101598.84
2022-10-17T10:20:38.111Z,101598.13
2022-10-17T10:25:50.827Z,101585.53
2022-10-17T10:30:53.699Z,101582.78
2022-10-17T10:36:02.195Z,101573.28
2022-10-17T10:41:07.860Z,101581.69
2022-10-17T10:46:20.630Z,101580.38
2022-10-17T10:51:26.072Z,101572.75
2022-10-17T10:56:55.246Z,101574.63
2022-10-17T11:02:11.569Z,101573.88
2022-10-17T11:07:19.466Z,101565.59
2022-10-17T11:12:26.940Z,101554.00
2022-10-17T11:17:31.729Z,101557.34
2022-10-17T11:22:42.052Z,101548.38
2022-10-17T11:27:44.413Z,101543.84
2022-10-17T11:32:54.232Z,101552.03
2022-10-17T11:38:22.735Z,101540.75
2022-10-17T11:43:46.175Z,101532.44
2022-10-17T11:49:20.150Z,101532.94
2022-10-17T11:54:32.066Z,101528.03
2022-10-17T11:59:34.256Z,101520.84
2022-10-17T12:05:02.373Z,101529.50
2022-10-17T12:10:46.685Z,101522.94
2022-10-17T12:15:48.934Z,101520.78
2022-10-17T12:20:58.861Z,101515.75
2022-10-17T12:26:06.632Z,101505.47
2022-10-17T12:31:23.217Z,101513.69
2022-10-17T12:36:28.372Z,101509.94
2022-10-17T12:41:39.662Z,101504.25
2022-10-17T12:46:52.923Z,101504.03
2022-10-17T12:52:07.464Z,101493.91
2022-10-17T12:57:22.873Z,101489.66
2022-10-17T13:02:28.151Z,101488.66
2022-10-17T13:07:31.045Z,101493.03
2022-10-17T13:12:40.289Z,101489.75
2022-10-17T13:17:43.988Z,101485.53
2022-10-17T13:22:46.360Z,101477.75
2022-10-17T13:27:49.515Z,101474.50
2022-10-17T13:32:52.099Z,101464.91
2022-10-17T13:37:55.990Z,101453.34
2022-10-17T13:43:02.133Z,101458.53
2022-10-17T13:48:16.766Z,101466.06
2022-10-17T13:53:26.535Z,101454.31
2022-10-17T13:58:49.820Z,101452.06
2022-10-17T14:04:07.238Z,101448.31
2022-10-17T14:09:27.007Z,101442.28
2022-10-17T14:14:32.124Z,101443.84
2022-10-17T14:19:40.046Z,101431.00
2022-10-17T14:24:43.637Z,101422.69
2022-10-17T14:29:53.574Z,101415.72
2022-10-17T14:35:05.573Z,101413.41
2022-10-17T14:40:24.873Z,101407.03
2022-10-17T14:45:33.962Z,101414.97
2022-10-17T14:50:36.701Z,101410.09
2022-10-17T14:55:41.150Z,101402.72
2022-10-17T15:00:43.501Z,101397.47
2022-10-17T15:05:46.849Z,101395.91
2022-10-17T15:10:49.906Z,101399.91
2022-10-17T15:15:52.676Z,101410.28
2022-10-17T15:21:04.631Z,101396.19
2022-10-17T15:26:38.125Z,101393.84
2022-10-17T15:31:40.887Z,101383.94
2022-10-17T15:36:49.909Z,101385.59
2022-10-17T15:41:52.209Z,101376.34
2022-10-17T15:46:54.881Z,101385.06
2022-10-17T15:51:57.149Z,101389.31
2022-10-17T15:56:59.471Z,101385.75
2022-10-17T16:02:01.778Z,101388.06
2022-10-17T16:07:04.284Z,101395.69
2022-10-17T16:12:11.733Z,101402.41
2022-10-17T16:17:15.143Z,101404.00
2022-10-17T16:22:28.712Z,101398.66
2022-10-17T16:27:31.315Z,101394.28
2022-10-17T16:32:34.137Z,101391.63
2022-10-17T16:37:36.588Z,101387.53
2022-10-17T16:42:39.155Z,101388.94
2022-10-17T16:47:41.481Z,101391.91
2022-10-17T16:52:43.980Z,101385.25
2022-10-17T16:57:48.957Z,101370.13
2022-10-17T17:02:51.718Z,101373.19
2022-10-17T17:07:55.838Z,101382.59
2022-10-17T17:12:58.350Z,101387.38
2022-10-17T17:18:05.358Z,101373.41
2022-10-17T17:23:13.713Z,101380.84
2022-10-17T17:28:18.377Z,101381.09
2022-10-17T17:33:20.818Z,101387.16
2022-10-17T17:38:23.330Z,101370.16
2022-10-17T17:43:25.986Z,101369.94
2022-10-17T17:48:28.391Z,101360.56
2022-10-17T17:53:30.832Z,101361.13
2022-10-17T17:58:33.650Z,101354.19
2022-10-17T18:03:35.898Z,101353.25
2022-10-17T18:08:38.523Z,101350.91
2022-10-17T18:13:40.895Z,101345.31
2022-10-17T18:18:45.460Z,101349.06
2022-10-17T18:23:48.994Z,101347.03
2022-10-17T18:28:51.540Z,101333.97
2022-10-17T18:33:55.724Z,101332.09
2022-10-17T18:38:59.766Z,101323.66
2022-10-17T18:44:05.652Z,101332.09
2022-10-17T18:49:19.770Z,101325.88
2022-10-17T18:54:22.554Z,101330.97
2022-10-17T18:59:24.824Z,101328.75
2022-10-17T19:04:27.209Z,101320.88
2022-10-17T19:09:29.633Z,101307.50
2022-10-17T19:14:31.921Z,101327.97
2022-10-17T19:19:34.702Z,101326.22
2022-10-17T19:24:37.000Z,101319.66
2022-10-17T19:29:43.581Z,101312.06
2022-10-17T19:34:45.926Z,101305.50
2022-10-17T19:39:49.620Z,101309.22
2022-10-17T19:44:51.882Z,101316.84
2022-10-17T19:49:54.299Z,101316.31
2022-10-17T19:54:56.654Z,101311.16
2022-10-17T19:59:58.927Z,101307.53
2022-10-17T20:05:17.652Z,101312.38
2022-10-17T20:10:20.751Z,101311.56
2022-10-17T20:15:23.105Z,101318.63
2022-10-17T20:20:25.613Z,101315.25
2022-10-17T20:25:27.954Z,101315.81
2022-10-17T20:30:30.290Z,101307.16
2022-10-17T20:35:32.582Z,101309.47
2022-10-17T20:40:35.754Z,101315.00
2022-10-17T20:45:51.442Z,101312.13
2022-10-17T20:50:54.522Z,101310.88
2022-10-17T20:56:21.854Z,101313.69
2022-10-17T21:01:25.285Z,101304.38
2022-10-17T21:06:27.760Z,101305.28
2022-10-17T21:11:30.753Z,101306.25
2022-10-17T21:16:35.550Z,101310.41
2022-10-17T21:21:39.430Z,101310.75
2022-10-17T21:26:43.405Z,101303.97
2022-10-17T21:31:45.790Z,101300.22
2022-10-17T21:36:48.691Z,101293.59
2022-10-17T21:41:51.685Z,101299.59
2022-10-17T21:46:55.154Z,101303.09
2022-10-17T21:51:58.002Z,101299.47
2022-10-17T21:57:00.282Z,101309.47
2022-10-17T22:02:02.598Z,101319.00
2022-10-17T22:07:05.168Z,101310.00
2022-10-17T22:12:07.541Z,101312.78
2022-10-17T22:17:09.895Z,101302.34
2022-10-17T22:22:12.354Z,101313.03
2022-10-17T22:27:14.942Z,101309.59
2022-10-17T22:32:20.119Z,101301.53
2022-10-17T22:37:24.851Z,101293.19
2022-10-17T22:42:31.515Z,101293.66
2022-10-17T22:47:34.050Z,101294.53
2022-10-17T22:52:36.322Z,101281.44
2022-10-17T22:57:38.784Z,101296.41
2022-10-17T23:02:41.040Z,101295.94
2022-10-17T23:07:43.360Z,101298.84
2022-10-17T23:12:45.727Z,101300.28
2022-10-17T23:17:48.006Z,101300.94
2022-10-17T23:22:50.334Z,101299.69
2022-10-17T23:27:52.706Z,101294.91
2022-10-17T23:32:55.055Z,101287.47
2022-10-17T23:37:57.357Z,101276.34
2022-10-17T23:42:59.731Z,101293.28
2022-10-17T23:48:02.434Z,101289.19
2022-10-17T23:53:04.771Z,101285.16
2022-10-17T23:58:07.160Z,101295.78
